sensor_id;sensor_type;location;lat;lon;timestamp;temperature;humidity
13203;DHT22;6666;51.626;7.530;2023-01-25T00:01:50;1.70;99.90
13203;DHT22;6666;51.626;7.530;2023-01-25T00:04:20;1.70;99.90
13203;DHT22;6666;51.626;7.530;2023-01-25T00:06:48;1.80;99.90
13203;DHT22;6666;51.626;7.530;2023-01-25T00:09:17;1.80;99.90
13203;DHT22;6666;51.626;7.530;2023-01-25T00:11:45;1.80;99.90
13203;DHT22;6666;51.626;7.530;2023-01-25T00:14:14;1.80;99.90
13203;DHT22;6666;51.626;7.530;2023-01-25T00:16:43;1.90;99.90
13203;DHT22;6666;51.626;7.530;2023-01-25T00:19:13;1.80;99.90
13203;DHT22;6666;51.626;7.530;2023-01-25T00:21:41;1.80;99.90
13203;DHT22;6666;51.626;7.530;2023-01-25T00:24:09;1.90;99.90
13203;DHT22;6666;51.626;7.530;2023-01-25T00:26:42;1.90;99.90
13203;DHT22;6666;51.626;7.530;2023-01-25T00:29:11;1.90;99.90
13203;DHT22;6666;51.626;7.530;2023-01-25T00:32:02;1.90;99.90
13203;DHT22;6666;51.626;7.530;2023-01-25T00:34:46;1.90;99.90
13203;DHT22;6666;51.626;7.530;2023-01-25T00:37:28;1.90;99.90
13203;DHT22;6666;51.626;7.530;2023-01-25T00:39:56;1.90;99.90
13203;DHT22;6666;51.626;7.530;2023-01-25T00:42:25;1.90;99.90
13203;DHT22;6666;51.626;7.530;2023-01-25T00:44:53;1.80;99.90
13203;DHT22;6666;51.626;7.530;2023-01-25T00:47:22;1.80;99.90
13203;DHT22;6666;51.626;7.530;2023-01-25T00:49:52;1.80;99.90
13203;DHT22;6666;51.626;7.530;2023-01-25T00:52:20;1.80;99.90
13203;DHT22;6666;51.626;7.530;2023-01-25T00:54:49;1.80;99.90
13203;DHT22;6666;51.626;7.530;2023-01-25T00:57:17;1.80;99.90
13203;DHT22;6666;51.626;7.530;2023-01-25T00:59:45;1.80;99.90
13203;DHT22;6666;51.626;7.530;2023-01-25T01:02:14;1.80;99.90
13203;DHT22;6666;51.626;7.530;2023-01-25T01:04:43;1.80;99.90
13203;DHT22;6666;51.626;7.530;2023-01-25T01:07:25;1.70;99.90
13203;DHT22;6666;51.626;7.530;2023-01-25T01:09:54;1.70;99.90
13203;DHT22;6666;51.626;7.530;2023-01-25T01:12:23;1.70;99.90
13203;DHT22;6666;51.626;7.530;2023-01-25T01:14:52;1.70;99.90
13203;DHT22;6666;51.626;7.530;2023-01-25T01:17:20;1.70;99.90
13203;DHT22;6666;51.626;7.530;2023-01-25T01:19:48;1.70;99.90
13203;DHT22;6666;51.626;7.530;2023-01-25T01:22:17;1.70;99.90
13203;DHT22;6666;51.626;7.530;2023-01-25T01:24:48;1.60;99.90
13203;DHT22;6666;51.626;7.530;2023-01-25T01:27:17;1.70;99.90
13203;DHT22;6666;51.626;7.530;2023-01-25T01:29:46;1.70;99.90
13203;DHT22;6666;51.626;7.530;2023-01-25T01:32:14;1.50;99.90
13203;DHT22;6666;51.626;7.530;2023-01-25T01:34:42;1.50;99.90
13203;DHT22;6666;51.626;7.530;2023-01-25T01:37:11;1.40;99.90
13203;DHT22;6666;51.626;7.530;2023-01-25T01:39:39;1.30;99.90
13203;DHT22;6666;51.626;7.530;2023-01-25T01:42:09;1.30;99.90
13203;DHT22;6666;51.626;7.530;2023-01-25T01:44:44;1.30;99.90
13203;DHT22;6666;51.626;7.530;2023-01-25T01:47:16;1.30;99.90
13203;DHT22;6666;51.626;7.530;2023-01-25T01:49:50;1.30;99.90
13203;DHT22;6666;51.626;7.530;2023-01-25T01:52:22;1.30;99.90
13203;DHT22;6666;51.626;7.530;2023-01-25T01:54:54;1.20;99.90
13203;DHT22;6666;51.626;7.530;2023-01-25T01:57:27;1.30;99.90
13203;DHT22;6666;51.626;7.530;2023-01-25T02:00:02;1.30;99.90
13203;DHT22;6666;51.626;7.530;2023-01-25T02:02:39;1.40;99.90
13203;DHT22;6666;51.626;7.530;2023-01-25T02:05:13;1.50;99.90
13203;DHT22;6666;51.626;7.530;2023-01-25T02:07:51;1.50;99.90
13203;DHT22;6666;51.626;7.530;2023-01-25T02:10:22;1.50;99.90
13203;DHT22;6666;51.626;7.530;2023-01-25T02:12:56;1.60;99.90
13203;DHT22;6666;51.626;7.530;2023-01-25T02:15:27;1.50;99.90
13203;DHT22;6666;51.626;7.530;2023-01-25T02:17:56;1.50;99.90
13203;DHT22;6666;51.626;7.530;2023-01-25T02:20:31;1.60;99.90
13203;DHT22;6666;51.626;7.530;2023-01-25T02:23:06;1.60;99.90
13203;DHT22;6666;51.626;7.530;2023-01-25T02:25:38;1.60;99.90
13203;DHT22;6666;51.626;7.530;2023-01-25T02:28:13;1.50;99.90
13203;DHT22;6666;51.626;7.530;2023-01-25T02:30:43;1.60;99.90
13203;DHT22;6666;51.626;7.530;2023-01-25T02:33:12;1.60;99.90
13203;DHT22;6666;51.626;7.530;2023-01-25T02:35:43;1.60;99.90
13203;DHT22;6666;51.626;7.530;2023-01-25T02:38:16;1.60;99.90
13203;DHT22;6666;51.626;7.530;2023-01-25T02:40:49;1.60;99.90
13203;DHT22;6666;51.626;7.530;2023-01-25T02:43:20;1.50;99.90
13203;DHT22;6666;51.626;7.530;2023-01-25T02:45:57;1.50;99.90
13203;DHT22;6666;51.626;7.530;2023-01-25T02:48:26;1.50;99.90
13203;DHT22;6666;51.626;7.530;2023-01-25T02:50:55;1.50;99.90
13203;DHT22;6666;51.626;7.530;2023-01-25T02:53:23;1.50;99.90
13203;DHT22;6666;51.626;7.530;2023-01-25T02:55:53;1.60;99.90
13203;DHT22;6666;51.626;7.530;2023-01-25T02:58:22;1.60;99.90
13203;DHT22;6666;51.626;7.530;2023-01-25T03:00:51;1.60;99.90
13203;DHT22;6666;51.626;7.530;2023-01-25T03:03:20;1.60;99.90
13203;DHT22;6666;51.626;7.530;2023-01-25T03:05:48;1.60;99.90
13203;DHT22;6666;51.626;7.530;2023-01-25T03:08:17;1.60;99.90
13203;DHT22;6666;51.626;7.530;2023-01-25T03:10:48;1.50;99.90
13203;DHT22;6666;51.626;7.530;2023-01-25T03:13:18;1.50;99.90
13203;DHT22;6666;51.626;7.530;2023-01-25T03:15:47;1.60;99.90
13203;DHT22;6666;51.626;7.530;2023-01-25T03:18:16;1.50;99.90
13203;DHT22;6666;51.626;7.530;2023-01-25T03:20:45;1.60;99.90
13203;DHT22;6666;51.626;7.530;2023-01-25T03:23:14;1.60;99.90
13203;DHT22;6666;51.626;7.530;2023-01-25T03:25:42;1.50;99.90
13203;DHT22;6666;51.626;7.530;2023-01-25T03:28:15;1.50;99.90
13203;DHT22;6666;51.626;7.530;2023-01-25T03:30:51;1.60;99.90
13203;DHT22;6666;51.626;7.530;2023-01-25T03:33:20;1.50;99.90
13203;DHT22;6666;51.626;7.530;2023-01-25T03:35:51;1.40;99.90
13203;DHT22;6666;51.626;7.530;2023-01-25T03:38:20;1.30;99.90
13203;DHT22;6666;51.626;7.530;2023-01-25T03:40:49;1.40;99.90
13203;DHT22;6666;51.626;7.530;2023-01-25T03:43:17;1.40;99.90
13203;DHT22;6666;51.626;7.530;2023-01-25T03:45:54;1.40;99.90
13203;DHT22;6666;51.626;7.530;2023-01-25T03:48:23;1.30;99.90
13203;DHT22;6666;51.626;7.530;2023-01-25T03:50:54;1.40;99.90
13203;DHT22;6666;51.626;7.530;2023-01-25T03:53:23;1.30;99.90
13203;DHT22;6666;51.626;7.530;2023-01-25T03:56:06;1.30;99.90
13203;DHT22;6666;51.626;7.530;2023-01-25T03:58:36;1.20;99.90
13203;DHT22;6666;51.626;7.530;2023-01-25T04:01:08;1.30;99.90
13203;DHT22;6666;51.626;7.530;2023-01-25T04:03:39;1.10;99.90
13203;DHT22;6666;51.626;7.530;2023-01-25T04:06:08;1.10;99.90
13203;DHT22;6666;51.626;7.530;2023-01-25T04:08:37;1.00;99.90
13203;DHT22;6666;51.626;7.530;2023-01-25T04:11:07;1.00;99.90
13203;DHT22;6666;51.626;7.530;2023-01-25T04:13:37;1.10;99.90
13203;DHT22;6666;51.626;7.530;2023-01-25T04:16:10;1.10;99.90
13203;DHT22;6666;51.626;7.530;2023-01-25T04:18:57;1.20;99.90
13203;DHT22;6666;51.626;7.530;2023-01-25T04:21:27;1.20;99.90
13203;DHT22;6666;51.626;7.530;2023-01-25T04:23:55;1.20;99.90
13203;DHT22;6666;51.626;7.530;2023-01-25T04:26:24;1.20;99.90
13203;DHT22;6666;51.626;7.530;2023-01-25T04:28:57;1.30;99.90
13203;DHT22;6666;51.626;7.530;2023-01-25T04:31:27;1.20;99.90
13203;DHT22;6666;51.626;7.530;2023-01-25T04:33:57;1.20;99.90
13203;DHT22;6666;51.626;7.530;2023-01-25T04:36:25;1.10;99.90
13203;DHT22;6666;51.626;7.530;2023-01-25T04:38:54;1.20;99.90
13203;DHT22;6666;51.626;7.530;2023-01-25T04:41:23;1.30;99.90
13203;DHT22;6666;51.626;7.530;2023-01-25T04:43:55;1.40;99.90
13203;DHT22;6666;51.626;7.530;2023-01-25T04:46:24;1.30;99.90
13203;DHT22;6666;51.626;7.530;2023-01-25T04:48:55;1.30;99.90
13203;DHT22;6666;51.626;7.530;2023-01-25T04:51:23;1.30;99.90
13203;DHT22;6666;51.626;7.530;2023-01-25T04:53:51;1.20;99.90
13203;DHT22;6666;51.626;7.530;2023-01-25T04:56:20;1.20;99.90
13203;DHT22;6666;51.626;7.530;2023-01-25T04:58:54;1.20;99.90
13203;DHT22;6666;51.626;7.530;2023-01-25T05:01:22;1.20;99.90
13203;DHT22;6666;51.626;7.530;2023-01-25T05:03:51;1.20;99.90
13203;DHT22;6666;51.626;7.530;2023-01-25T05:06:32;1.20;99.90
13203;DHT22;6666;51.626;7.530;2023-01-25T05:09:01;1.30;99.90
13203;DHT22;6666;51.626;7.530;2023-01-25T05:11:31;1.20;99.90
13203;DHT22;6666;51.626;7.530;2023-01-25T05:14:19;1.20;99.90
13203;DHT22;6666;51.626;7.530;2023-01-25T05:16:49;1.30;99.90
13203;DHT22;6666;51.626;7.530;2023-01-25T05:19:17;1.20;99.90
13203;DHT22;6666;51.626;7.530;2023-01-25T05:21:56;1.20;99.90
13203;DHT22;6666;51.626;7.530;2023-01-25T05:24:32;1.10;99.90
13203;DHT22;6666;51.626;7.530;2023-01-25T05:27:05;1.10;99.90
13203;DHT22;6666;51.626;7.530;2023-01-25T05:29:52;1.10;99.90
13203;DHT22;6666;51.626;7.530;2023-01-25T05:32:47;1.10;99.90
13203;DHT22;6666;51.626;7.530;2023-01-25T05:35:16;1.00;99.90
13203;DHT22;6666;51.626;7.530;2023-01-25T05:37:48;0.80;99.90
13203;DHT22;6666;51.626;7.530;2023-01-25T05:40:21;1.00;99.90
13203;DHT22;6666;51.626;7.530;2023-01-25T05:42:53;1.10;99.90
13203;DHT22;6666;51.626;7.530;2023-01-25T05:45:23;1.10;99.90
13203;DHT22;6666;51.626;7.530;2023-01-25T05:47:54;1.10;99.90
13203;DHT22;6666;51.626;7.530;2023-01-25T05:50:24;1.10;99.90
13203;DHT22;6666;51.626;7.530;2023-01-25T05:53:10;1.10;99.90
13203;DHT22;6666;51.626;7.530;2023-01-25T05:55:39;1.10;99.90
13203;DHT22;6666;51.626;7.530;2023-01-25T05:58:12;1.10;99.90
13203;DHT22;6666;51.626;7.530;2023-01-25T06:00:41;1.10;99.90
13203;DHT22;6666;51.626;7.530;2023-01-25T06:03:15;1.10;99.90
13203;DHT22;6666;51.626;7.530;2023-01-25T06:05:44;1.10;99.90
13203;DHT22;6666;51.626;7.530;2023-01-25T06:08:14;1.10;99.90
13203;DHT22;6666;51.626;7.530;2023-01-25T06:10:48;1.20;99.90
13203;DHT22;6666;51.626;7.530;2023-01-25T06:13:18;1.20;99.90
13203;DHT22;6666;51.626;7.530;2023-01-25T06:15:51;1.10;99.90
13203;DHT22;6666;51.626;7.530;2023-01-25T06:18:52;1.10;99.90
13203;DHT22;6666;51.626;7.530;2023-01-25T06:21:33;1.20;99.90
13203;DHT22;6666;51.626;7.530;2023-01-25T06:24:04;1.20;99.90
13203;DHT22;6666;51.626;7.530;2023-01-25T06:26:33;1.10;99.90
13203;DHT22;6666;51.626;7.530;2023-01-25T06:29:04;1.20;99.90
13203;DHT22;6666;51.626;7.530;2023-01-25T06:31:32;1.30;99.90
13203;DHT22;6666;51.626;7.530;2023-01-25T06:34:01;1.20;99.90
13203;DHT22;6666;51.626;7.530;2023-01-25T06:36:33;1.20;99.90
13203;DHT22;6666;51.626;7.530;2023-01-25T06:39:01;1.20;99.90
13203;DHT22;6666;51.626;7.530;2023-01-25T06:41:31;1.30;99.90
13203;DHT22;6666;51.626;7.530;2023-01-25T06:43:59;1.40;99.90
13203;DHT22;6666;51.626;7.530;2023-01-25T06:46:30;1.30;99.90
13203;DHT22;6666;51.626;7.530;2023-01-25T06:48:59;1.20;99.90
13203;DHT22;6666;51.626;7.530;2023-01-25T06:51:28;1.20;99.90
13203;DHT22;6666;51.626;7.530;2023-01-25T06:53:56;1.20;99.90
13203;DHT22;6666;51.626;7.530;2023-01-25T06:56:30;1.30;99.90
13203;DHT22;6666;51.626;7.530;2023-01-25T06:58:59;1.20;99.90
13203;DHT22;6666;51.626;7.530;2023-01-25T07:01:27;1.20;99.90
13203;DHT22;6666;51.626;7.530;2023-01-25T07:03:57;1.20;99.90
13203;DHT22;6666;51.626;7.530;2023-01-25T07:06:31;1.30;99.90
13203;DHT22;6666;51.626;7.530;2023-01-25T07:09:04;1.30;99.90
13203;DHT22;6666;51.626;7.530;2023-01-25T07:11:35;1.20;99.90
13203;DHT22;6666;51.626;7.530;2023-01-25T07:14:04;0.90;99.90
13203;DHT22;6666;51.626;7.530;2023-01-25T07:16:32;0.80;99.90
13203;DHT22;6666;51.626;7.530;2023-01-25T07:19:04;0.80;99.90
13203;DHT22;6666;51.626;7.530;2023-01-25T07:21:33;0.90;99.90
13203;DHT22;6666;51.626;7.530;2023-01-25T07:24:03;1.00;99.90
13203;DHT22;6666;51.626;7.530;2023-01-25T07:26:33;1.10;99.90
13203;DHT22;6666;51.626;7.530;2023-01-25T07:29:02;1.10;99.90
13203;DHT22;6666;51.626;7.530;2023-01-25T07:31:30;0.90;99.90
13203;DHT22;6666;51.626;7.530;2023-01-25T07:33:59;0.90;99.90
13203;DHT22;6666;51.626;7.530;2023-01-25T07:36:27;0.90;99.90
13203;DHT22;6666;51.626;7.530;2023-01-25T07:38:56;0.90;99.90
13203;DHT22;6666;51.626;7.530;2023-01-25T07:41:26;0.90;99.90
13203;DHT22;6666;51.626;7.530;2023-01-25T07:43:55;0.80;99.90
13203;DHT22;6666;51.626;7.530;2023-01-25T07:46:47;0.90;99.90
13203;DHT22;6666;51.626;7.530;2023-01-25T07:49:16;0.80;99.90
13203;DHT22;6666;51.626;7.530;2023-01-25T07:51:44;0.80;99.90
13203;DHT22;6666;51.626;7.530;2023-01-25T07:54:12;0.90;99.90
13203;DHT22;6666;51.626;7.530;2023-01-25T07:56:41;0.90;99.90
13203;DHT22;6666;51.626;7.530;2023-01-25T07:59:11;0.90;99.90
13203;DHT22;6666;51.626;7.530;2023-01-25T08:01:40;0.90;99.90
13203;DHT22;6666;51.626;7.530;2023-01-25T08:04:08;0.90;99.90
13203;DHT22;6666;51.626;7.530;2023-01-25T08:06:37;0.90;99.90
13203;DHT22;6666;51.626;7.530;2023-01-25T08:09:09;0.90;99.90
13203;DHT22;6666;51.626;7.530;2023-01-25T08:11:38;0.90;99.90
13203;DHT22;6666;51.626;7.530;2023-01-25T08:14:06;1.00;99.90
13203;DHT22;6666;51.626;7.530;2023-01-25T08:16:36;0.90;99.90
13203;DHT22;6666;51.626;7.530;2023-01-25T08:19:04;0.70;99.90
13203;DHT22;6666;51.626;7.530;2023-01-25T08:21:34;0.70;99.90
13203;DHT22;6666;51.626;7.530;2023-01-25T08:24:04;0.70;99.90
13203;DHT22;6666;51.626;7.530;2023-01-25T08:26:34;0.80;99.90
13203;DHT22;6666;51.626;7.530;2023-01-25T08:29:03;0.80;99.90
13203;DHT22;6666;51.626;7.530;2023-01-25T08:31:33;0.80;99.90
13203;DHT22;6666;51.626;7.530;2023-01-25T08:34:04;0.90;99.90
13203;DHT22;6666;51.626;7.530;2023-01-25T08:36:33;0.90;99.90
13203;DHT22;6666;51.626;7.530;2023-01-25T08:39:04;1.00;99.90
13203;DHT22;6666;51.626;7.530;2023-01-25T08:41:34;1.00;99.90
13203;DHT22;6666;51.626;7.530;2023-01-25T08:44:03;1.00;99.90
13203;DHT22;6666;51.626;7.530;2023-01-25T08:46:32;1.00;99.90
13203;DHT22;6666;51.626;7.530;2023-01-25T08:49:02;1.00;99.90
13203;DHT22;6666;51.626;7.530;2023-01-25T08:51:32;1.00;99.90
13203;DHT22;6666;51.626;7.530;2023-01-25T08:54:05;1.00;99.90
13203;DHT22;6666;51.626;7.530;2023-01-25T08:56:36;0.90;99.90
13203;DHT22;6666;51.626;7.530;2023-01-25T08:59:04;0.90;99.90
13203;DHT22;6666;51.626;7.530;2023-01-25T09:01:33;1.00;99.90
13203;DHT22;6666;51.626;7.530;2023-01-25T09:04:02;1.10;99.90
13203;DHT22;6666;51.626;7.530;2023-01-25T09:06:32;1.20;99.90
13203;DHT22;6666;51.626;7.530;2023-01-25T09:09:02;1.10;99.90
13203;DHT22;6666;51.626;7.530;2023-01-25T09:11:33;1.10;99.90
13203;DHT22;6666;51.626;7.530;2023-01-25T09:14:03;1.10;99.90
13203;DHT22;6666;51.626;7.530;2023-01-25T09:16:32;1.10;99.90
13203;DHT22;6666;51.626;7.530;2023-01-25T09:19:03;1.10;99.90
13203;DHT22;6666;51.626;7.530;2023-01-25T09:21:32;1.00;99.90
13203;DHT22;6666;51.626;7.530;2023-01-25T09:24:03;0.90;99.90
13203;DHT22;6666;51.626;7.530;2023-01-25T09:26:35;0.90;99.90
13203;DHT22;6666;51.626;7.530;2023-01-25T09:29:06;1.10;99.90
13203;DHT22;6666;51.626;7.530;2023-01-25T09:31:35;1.00;99.90
13203;DHT22;6666;51.626;7.530;2023-01-25T09:34:24;1.10;99.90
13203;DHT22;6666;51.626;7.530;2023-01-25T09:36:52;1.10;99.90
13203;DHT22;6666;51.626;7.530;2023-01-25T09:39:21;1.10;99.90
13203;DHT22;6666;51.626;7.530;2023-01-25T09:42:07;1.10;99.90
13203;DHT22;6666;51.626;7.530;2023-01-25T09:47:46;1.00;99.90
13203;DHT22;6666;51.626;7.530;2023-01-25T09:53:24;1.00;99.90
13203;DHT22;6666;51.626;7.530;2023-01-25T09:55:57;1.00;99.90
13203;DHT22;6666;51.626;7.530;2023-01-25T09:58:31;1.00;99.90
13203;DHT22;6666;51.626;7.530;2023-01-25T10:01:33;0.80;99.90
13203;DHT22;6666;51.626;7.530;2023-01-25T10:04:12;0.90;99.90
13203;DHT22;6666;51.626;7.530;2023-01-25T10:06:45;1.00;99.90
13203;DHT22;6666;51.626;7.530;2023-01-25T10:09:39;1.10;99.90
13203;DHT22;6666;51.626;7.530;2023-01-25T10:12:14;1.10;99.90
13203;DHT22;6666;51.626;7.530;2023-01-25T10:14:43;1.20;99.90
13203;DHT22;6666;51.626;7.530;2023-01-25T10:17:17;1.10;99.90
13203;DHT22;6666;51.626;7.530;2023-01-25T10:19:56;1.20;99.90
13203;DHT22;6666;51.626;7.530;2023-01-25T10:22:35;1.20;99.90
13203;DHT22;6666;51.626;7.530;2023-01-25T10:25:24;1.10;99.90
13203;DHT22;6666;51.626;7.530;2023-01-25T10:28:24;1.10;99.90
13203;DHT22;6666;51.626;7.530;2023-01-25T10:30:58;1.10;99.90
13203;DHT22;6666;51.626;7.530;2023-01-25T10:33:30;1.10;99.90
13203;DHT22;6666;51.626;7.530;2023-01-25T10:36:04;1.10;99.90
13203;DHT22;6666;51.626;7.530;2023-01-25T10:38:38;1.20;99.90
13203;DHT22;6666;51.626;7.530;2023-01-25T10:41:12;1.20;99.90
13203;DHT22;6666;51.626;7.530;2023-01-25T10:43:42;1.20;99.90
13203;DHT22;6666;51.626;7.530;2023-01-25T10:46:18;1.10;99.90
13203;DHT22;6666;51.626;7.530;2023-01-25T10:48:48;1.20;99.90
13203;DHT22;6666;51.626;7.530;2023-01-25T10:51:30;1.20;99.90
13203;DHT22;6666;51.626;7.530;2023-01-25T10:54:03;1.10;99.90
13203;DHT22;6666;51.626;7.530;2023-01-25T10:56:33;1.20;99.90
13203;DHT22;6666;51.626;7.530;2023-01-25T10:59:12;1.10;99.90
13203;DHT22;6666;51.626;7.530;2023-01-25T11:01:42;1.10;99.90
13203;DHT22;6666;51.626;7.530;2023-01-25T11:04:26;1.20;99.90
13203;DHT22;6666;51.626;7.530;2023-01-25T11:06:57;1.30;99.90
13203;DHT22;6666;51.626;7.530;2023-01-25T11:09:33;1.20;99.90
13203;DHT22;6666;51.626;7.530;2023-01-25T11:12:03;1.30;99.90
13203;DHT22;6666;51.626;7.530;2023-01-25T11:14:33;1.30;99.90
13203;DHT22;6666;51.626;7.530;2023-01-25T11:17:04;1.20;99.90
13203;DHT22;6666;51.626;7.530;2023-01-25T11:19:34;1.10;99.90
13203;DHT22;6666;51.626;7.530;2023-01-25T11:22:04;0.90;99.90
13203;DHT22;6666;51.626;7.530;2023-01-25T11:24:35;0.90;99.90
13203;DHT22;6666;51.626;7.530;2023-01-25T11:27:19;0.90;99.90
13203;DHT22;6666;51.626;7.530;2023-01-25T11:30:08;1.20;99.90
13203;DHT22;6666;51.626;7.530;2023-01-25T11:32:39;1.00;99.90
13203;DHT22;6666;51.626;7.530;2023-01-25T11:35:16;0.90;99.90
13203;DHT22;6666;51.626;7.530;2023-01-25T11:37:59;1.00;99.90
13203;DHT22;6666;51.626;7.530;2023-01-25T11:40:37;1.20;99.90
13203;DHT22;6666;51.626;7.530;2023-01-25T11:43:22;1.20;99.90
13203;DHT22;6666;51.626;7.530;2023-01-25T11:46:05;1.20;99.90
13203;DHT22;6666;51.626;7.530;2023-01-25T11:48:49;1.20;99.90
13203;DHT22;6666;51.626;7.530;2023-01-25T11:51:25;1.30;99.90
13203;DHT22;6666;51.626;7.530;2023-01-25T11:54:11;1.40;99.90
13203;DHT22;6666;51.626;7.530;2023-01-25T11:56:56;1.10;99.90
13203;DHT22;6666;51.626;7.530;2023-01-25T11:59:43;1.20;99.90
13203;DHT22;6666;51.626;7.530;2023-01-25T12:02:33;1.30;99.90
13203;DHT22;6666;51.626;7.530;2023-01-25T12:05:25;1.40;99.90
13203;DHT22;6666;51.626;7.530;2023-01-25T12:08:06;1.30;99.90
13203;DHT22;6666;51.626;7.530;2023-01-25T12:10:44;1.40;99.90
13203;DHT22;6666;51.626;7.530;2023-01-25T12:13:21;1.40;99.90
13203;DHT22;6666;51.626;7.530;2023-01-25T12:16:01;1.40;99.90
13203;DHT22;6666;51.626;7.530;2023-01-25T12:18:53;1.20;99.90
13203;DHT22;6666;51.626;7.530;2023-01-25T12:21:41;1.20;99.90
13203;DHT22;6666;51.626;7.530;2023-01-25T12:24:29;1.30;99.90
13203;DHT22;6666;51.626;7.530;2023-01-25T12:27:13;1.50;99.90
13203;DHT22;6666;51.626;7.530;2023-01-25T12:29:52;1.40;99.90
13203;DHT22;6666;51.626;7.530;2023-01-25T12:32:26;1.40;99.90
13203;DHT22;6666;51.626;7.530;2023-01-25T12:35:19;1.30;99.90
13203;DHT22;6666;51.626;7.530;2023-01-25T12:37:53;1.30;99.90
13203;DHT22;6666;51.626;7.530;2023-01-25T12:40:31;1.20;99.90
13203;DHT22;6666;51.626;7.530;2023-01-25T12:43:00;1.30;99.90
13203;DHT22;6666;51.626;7.530;2023-01-25T12:45:32;1.30;99.90
13203;DHT22;6666;51.626;7.530;2023-01-25T12:48:11;1.40;99.90
13203;DHT22;6666;51.626;7.530;2023-01-25T12:50:46;1.30;99.90
13203;DHT22;6666;51.626;7.530;2023-01-25T12:53:19;1.30;99.90
13203;DHT22;6666;51.626;7.530;2023-01-25T12:55:48;1.30;99.90
13203;DHT22;6666;51.626;7.530;2023-01-25T12:58:25;1.30;99.90
13203;DHT22;6666;51.626;7.530;2023-01-25T13:01:10;1.40;99.90
13203;DHT22;6666;51.626;7.530;2023-01-25T13:03:57;1.40;99.90
13203;DHT22;6666;51.626;7.530;2023-01-25T13:06:35;1.30;99.90
13203;DHT22;6666;51.626;7.530;2023-01-25T13:09:10;1.40;99.90
13203;DHT22;6666;51.626;7.530;2023-01-25T13:11:42;1.50;99.90
13203;DHT22;6666;51.626;7.530;2023-01-25T13:14:24;1.40;99.90
13203;DHT22;6666;51.626;7.530;2023-01-25T13:17:10;1.40;99.90
13203;DHT22;6666;51.626;7.530;2023-01-25T13:19:40;1.30;99.90
13203;DHT22;6666;51.626;7.530;2023-01-25T13:22:09;1.30;99.90
13203;DHT22;6666;51.626;7.530;2023-01-25T13:25:07;1.30;99.90
13203;DHT22;6666;51.626;7.530;2023-01-25T13:27:37;1.40;99.90
13203;DHT22;6666;51.626;7.530;2023-01-25T13:30:29;1.40;99.90
13203;DHT22;6666;51.626;7.530;2023-01-25T13:33:01;1.40;99.90
13203;DHT22;6666;51.626;7.530;2023-01-25T13:35:37;1.50;99.90
13203;DHT22;6666;51.626;7.530;2023-01-25T13:38:23;1.50;99.90
13203;DHT22;6666;51.626;7.530;2023-01-25T13:41:11;1.50;99.90
13203;DHT22;6666;51.626;7.530;2023-01-25T13:43:46;1.50;99.90
13203;DHT22;6666;51.626;7.530;2023-01-25T13:46:17;1.40;99.90
13203;DHT22;6666;51.626;7.530;2023-01-25T13:48:54;1.30;99.90
13203;DHT22;6666;51.626;7.530;2023-01-25T13:51:28;1.40;99.90
13203;DHT22;6666;51.626;7.530;2023-01-25T13:53:58;1.50;99.90
13203;DHT22;6666;51.626;7.530;2023-01-25T13:56:32;1.40;99.90
13203;DHT22;6666;51.626;7.530;2023-01-25T13:59:01;1.50;99.90
13203;DHT22;6666;51.626;7.530;2023-01-25T14:01:31;1.60;99.90
13203;DHT22;6666;51.626;7.530;2023-01-25T14:04:03;1.40;99.90
13203;DHT22;6666;51.626;7.530;2023-01-25T14:06:33;1.50;99.90
13203;DHT22;6666;51.626;7.530;2023-01-25T14:09:11;1.60;99.90
13203;DHT22;6666;51.626;7.530;2023-01-25T14:11:44;1.60;99.90
13203;DHT22;6666;51.626;7.530;2023-01-25T14:14:17;1.60;99.90
13203;DHT22;6666;51.626;7.530;2023-01-25T14:16:59;1.50;99.90
13203;DHT22;6666;51.626;7.530;2023-01-25T14:19:30;1.40;99.90
13203;DHT22;6666;51.626;7.530;2023-01-25T14:22:16;1.50;99.90
13203;DHT22;6666;51.626;7.530;2023-01-25T14:25:11;1.40;99.90
13203;DHT22;6666;51.626;7.530;2023-01-25T14:27:44;1.50;99.90
13203;DHT22;6666;51.626;7.530;2023-01-25T14:30:19;1.40;99.90
13203;DHT22;6666;51.626;7.530;2023-01-25T14:32:49;1.50;99.90
13203;DHT22;6666;51.626;7.530;2023-01-25T14:35:44;1.50;99.90
13203;DHT22;6666;51.626;7.530;2023-01-25T14:38:34;1.40;99.90
13203;DHT22;6666;51.626;7.530;2023-01-25T14:41:10;1.40;99.90
13203;DHT22;6666;51.626;7.530;2023-01-25T14:43:40;1.50;99.90
13203;DHT22;6666;51.626;7.530;2023-01-25T14:46:18;1.40;99.90
13203;DHT22;6666;51.626;7.530;2023-01-25T14:48:47;1.50;99.90
13203;DHT22;6666;51.626;7.530;2023-01-25T14:51:23;1.50;99.90
13203;DHT22;6666;51.626;7.530;2023-01-25T14:53:56;1.40;99.90
13203;DHT22;6666;51.626;7.530;2023-01-25T14:56:38;1.30;99.90
13203;DHT22;6666;51.626;7.530;2023-01-25T14:59:21;1.30;99.90
13203;DHT22;6666;51.626;7.530;2023-01-25T15:01:51;1.30;99.90
13203;DHT22;6666;51.626;7.530;2023-01-25T15:04:20;1.30;99.90
13203;DHT22;6666;51.626;7.530;2023-01-25T15:06:51;1.40;99.90
13203;DHT22;6666;51.626;7.530;2023-01-25T15:09:35;1.30;99.90
13203;DHT22;6666;51.626;7.530;2023-01-25T15:12:22;1.40;99.90
13203;DHT22;6666;51.626;7.530;2023-01-25T15:14:54;1.40;99.90
13203;DHT22;6666;51.626;7.530;2023-01-25T15:17:38;1.50;99.90
13203;DHT22;6666;51.626;7.530;2023-01-25T15:20:25;1.40;99.90
13203;DHT22;6666;51.626;7.530;2023-01-25T15:22:58;1.30;99.90
13203;DHT22;6666;51.626;7.530;2023-01-25T15:25:26;1.30;99.90
13203;DHT22;6666;51.626;7.530;2023-01-25T15:27:55;1.30;99.90
13203;DHT22;6666;51.626;7.530;2023-01-25T15:30:23;1.40;99.90
13203;DHT22;6666;51.626;7.530;2023-01-25T15:32:51;1.30;99.90
13203;DHT22;6666;51.626;7.530;2023-01-25T15:35:20;1.40;99.90
13203;DHT22;6666;51.626;7.530;2023-01-25T15:37:49;1.20;99.90
13203;DHT22;6666;51.626;7.530;2023-01-25T15:40:19;1.30;99.90
13203;DHT22;6666;51.626;7.530;2023-01-25T15:42:47;1.30;99.90
13203;DHT22;6666;51.626;7.530;2023-01-25T15:45:15;1.20;99.90
13203;DHT22;6666;51.626;7.530;2023-01-25T15:47:44;1.30;99.90
13203;DHT22;6666;51.626;7.530;2023-01-25T15:50:16;1.40;99.90
13203;DHT22;6666;51.626;7.530;2023-01-25T15:52:46;1.30;99.90
13203;DHT22;6666;51.626;7.530;2023-01-25T15:55:14;1.30;99.90
13203;DHT22;6666;51.626;7.530;2023-01-25T15:57:44;1.30;99.90
13203;DHT22;6666;51.626;7.530;2023-01-25T16:00:18;1.30;99.90
13203;DHT22;6666;51.626;7.530;2023-01-25T16:02:47;1.30;99.90
13203;DHT22;6666;51.626;7.530;2023-01-25T16:05:16;1.30;99.90
13203;DHT22;6666;51.626;7.530;2023-01-25T16:07:44;1.30;99.90
13203;DHT22;6666;51.626;7.530;2023-01-25T16:10:21;1.30;99.90
13203;DHT22;6666;51.626;7.530;2023-01-25T16:12:51;1.20;99.90
13203;DHT22;6666;51.626;7.530;2023-01-25T16:15:20;1.20;99.90
13203;DHT22;6666;51.626;7.530;2023-01-25T16:17:48;1.30;99.90
13203;DHT22;6666;51.626;7.530;2023-01-25T16:20:18;1.30;99.90
13203;DHT22;6666;51.626;7.530;2023-01-25T16:22:46;1.40;99.90
13203;DHT22;6666;51.626;7.530;2023-01-25T16:25:15;1.20;99.90
13203;DHT22;6666;51.626;7.530;2023-01-25T16:27:43;1.10;99.90
13203;DHT22;6666;51.626;7.530;2023-01-25T16:30:18;1.30;99.90
13203;DHT22;6666;51.626;7.530;2023-01-25T16:32:50;1.30;99.90
13203;DHT22;6666;51.626;7.530;2023-01-25T16:35:19;1.30;99.90
13203;DHT22;6666;51.626;7.530;2023-01-25T16:37:48;1.30;99.90
13203;DHT22;6666;51.626;7.530;2023-01-25T16:40:21;1.30;99.90
13203;DHT22;6666;51.626;7.530;2023-01-25T16:42:50;1.30;99.90
13203;DHT22;6666;51.626;7.530;2023-01-25T16:45:20;1.30;99.90
13203;DHT22;6666;51.626;7.530;2023-01-25T16:47:50;1.30;99.90